createdAt,value
2023-04-02T00:00:32.940Z,100263.59
2023-04-02T00:03:42.422Z,100281.50
2023-04-02T00:06:54.227Z,100297.38
2023-04-02T00:09:57.730Z,100297.09
2023-04-02T00:13:31.347Z,100300.97
2023-04-02T00:16:33.467Z,100304.59
2023-04-02T00:20:07.222Z,100323.03
2023-04-02T00:23:15.833Z,100316.41
2023-04-02T00:26:34.064Z,100324.66
2023-04-02T00:29:35.922Z,100330.50
2023-04-02T00:32:40.685Z,100338.34
2023-04-02T00:35:43.082Z,100339.47
2023-04-02T00:38:46.723Z,100351.44
2023-04-02T00:41:54.860Z,100354.16
2023-04-02T00:44:58.963Z,100357.38
2023-04-02T00:48:13.701Z,100360.34
2023-04-02T00:51:46.804Z,100355.97
2023-04-02T00:54:52.889Z,100369.56
2023-04-02T00:57:57.866Z,100369.19
2023-04-02T01:01:01.951Z,100366.88
2023-04-02T01:04:05.728Z,100368.00
2023-04-02T01:07:11.340Z,100373.28
2023-04-02T01:10:26.476Z,100370.06
2023-04-02T01:13:38.077Z,100376.16
2023-04-02T01:17:34.153Z,100379.69
2023-04-02T01:20:47.912Z,100399.31
2023-04-02T01:24:08.389Z,100393.38
2023-04-02T01:27:21.962Z,100396.63
2023-04-02T01:30:24.304Z,100406.09
2023-04-02T01:33:31.558Z,100412.94
2023-04-02T01:36:52.217Z,100408.34
2023-04-02T01:40:12.970Z,100422.84
2023-04-02T01:43:47.496Z,100433.25
2023-04-02T01:46:50.538Z,100425.72
2023-04-02T01:49:57.315Z,100429.91
2023-04-02T01:53:08.561Z,100434.22
2023-04-02T01:56:11.457Z,100451.34
2023-04-02T01:59:16.752Z,100454.66
2023-04-02T02:02:21.847Z,100458.19
2023-04-02T02:05:24.265Z,100458.56
2023-04-02T02:08:59.694Z,100473.75
2023-04-02T02:12:03.419Z,100482.25
2023-04-02T02:15:19.289Z,100488.19
2023-04-02T02:18:23.617Z,100486.75
2023-04-02T02:21:47.557Z,100493.38
2023-04-02T02:24:50.679Z,100496.16
2023-04-02T02:28:16.279Z,100506.53
2023-04-02T02:31:37.405Z,100518.19
2023-04-02T02:35:19.617Z,100513.81
2023-04-02T02:38:39.403Z,100522.75
2023-04-02T02:41:56.978Z,100525.03
2023-04-02T02:45:05.133Z,100537.88
2023-04-02T02:48:16.455Z,100538.88
2023-04-02T02:51:27.740Z,100548.28
2023-04-02T02:54:31.532Z,100558.50
2023-04-02T02:57:40.565Z,100565.22
2023-04-02T03:00:43.421Z,100567.56
2023-04-02T03:03:49.349Z,100564.34
2023-04-02T03:06:53.665Z,100571.44
2023-04-02T03:10:36.490Z,100583.75
2023-04-02T03:13:40.354Z,100587.88
2023-04-02T03:16:47.345Z,100588.84
2023-04-02T03:20:12.899Z,100596.53
2023-04-02T03:23:19.174Z,100599.19
2023-04-02T03:26:52.726Z,100607.75
2023-04-02T03:30:35.773Z,100611.09
2023-04-02T03:33:42.548Z,100619.78
2023-04-02T03:37:05.782Z,100628.25
2023-04-02T03:40:34.102Z,100634.22
2023-04-02T03:43:56.625Z,100646.03
2023-04-02T03:47:04.739Z,100650.88
2023-04-02T03:50:28.899Z,100654.38
2023-04-02T03:53:34.035Z,100655.53
2023-04-02T03:56:43.813Z,100663.16
2023-04-02T04:00:05.177Z,100674.06
2023-04-02T04:03:41.146Z,100682.69
2023-04-02T04:06:46.527Z,100677.38
2023-04-02T04:09:52.403Z,100689.19
2023-04-02T04:12:57.404Z,100693.63
2023-04-02T04:16:22.625Z,100705.44
2023-04-02T04:19:40.801Z,100712.19
2023-04-02T04:22:43.337Z,100715.22
2023-04-02T04:25:59.615Z,100719.19
2023-04-02T04:29:19.323Z,100726.75
2023-04-02T04:32:27.695Z,100728.00
2023-04-02T04:35:38.409Z,100721.84
2023-04-02T04:38:55.137Z,100736.53
2023-04-02T04:42:03.218Z,100748.25
2023-04-02T04:45:37.836Z,100755.97
2023-04-02T04:48:54.613Z,100763.44
2023-04-02T04:52:07.753Z,100772.84
2023-04-02T04:55:42.497Z,100781.38
2023-04-02T04:59:12.926Z,100785.66
2023-04-02T05:02:27.760Z,100796.84
2023-04-02T05:05:33.789Z,100807.84
2023-04-02T05:08:45.790Z,100809.69
2023-04-02T05:11:59.939Z,100813.78
2023-04-02T05:15:23.544Z,100817.81
2023-04-02T05:18:38.288Z,100828.16
2023-04-02T05:21:57.700Z,100827.47
2023-04-02T05:25:13.276Z,100832.69
2023-04-02T05:28:53.145Z,100848.78
2023-04-02T05:32:09.197Z,100852.81
2023-04-02T05:35:17.286Z,100855.44
2023-04-02T05:38:26.692Z,100862.94
2023-04-02T05:41:36.559Z,100868.69
2023-04-02T05:44:49.507Z,100867.47
2023-04-02T05:47:59.899Z,100876.66
2023-04-02T05:51:11.608Z,100886.75
2023-04-02T05:54:45.158Z,100889.91
2023-04-02T05:58:13.550Z,100901.75
2023-04-02T06:01:51.647Z,100904.94
2023-04-02T06:05:07.403Z,100906.72
2023-04-02T06:08:21.209Z,100915.22
2023-04-02T06:11:32.208Z,100922.75
2023-04-02T06:14:37.345Z,100929.28
2023-04-02T06:17:53.294Z,100923.09
2023-04-02T06:20:55.869Z,100939.31
2023-04-02T06:24:02.554Z,100950.16
2023-04-02T06:27:10.138Z,100964.06
2023-04-02T06:30:27.225Z,100961.66
2023-04-02T06:33:29.327Z,100963.31
2023-04-02T06:36:32.616Z,100974.31
2023-04-02T06:39:38.403Z,100980.69
2023-04-02T06:42:42.437Z,100981.22
2023-04-02T06:46:28.565Z,100990.38
2023-04-02T06:49:34.261Z,100992.88
2023-04-02T06:52:53.985Z,100998.75
2023-04-02T06:56:20.328Z,101005.53
2023-04-02T06:59:22.534Z,101018.16
2023-04-02T07:02:37.807Z,101022.41
2023-04-02T07:05:43.187Z,101028.31
2023-04-02T07:08:46.065Z,101023.13
2023-04-02T07:11:48.932Z,101027.00
2023-04-02T07:14:53.684Z,101030.88
2023-04-02T07:18:01.790Z,101048.25
2023-04-02T07:21:03.838Z,101046.97
2023-04-02T07:24:06.423Z,101050.28
2023-04-02T07:27:14.806Z,101056.31
2023-04-02T07:30:16.563Z,101064.06
2023-04-02T07:33:22.188Z,101068.09
2023-04-02T07:36:24.738Z,101079.03
2023-04-02T07:39:26.603Z,101080.81
2023-04-02T07:42:28.244Z,101078.78
2023-04-02T07:45:30.156Z,101087.78
2023-04-02T07:48:32.243Z,101090.00
2023-04-02T07:51:33.917Z,101098.66
2023-04-02T07:54:39.983Z,101103.94
2023-04-02T07:57:49.414Z,101117.44
2023-04-02T08:00:51.537Z,101128.19
2023-04-02T08:03:57.835Z,101136.56
2023-04-02T08:07:03.018Z,101138.94
2023-04-02T08:10:06.060Z,101138.53
2023-04-02T08:13:07.832Z,101135.22
2023-04-02T08:16:10.178Z,101146.78
2023-04-02T08:19:14.910Z,101151.84
2023-04-02T08:22:16.896Z,101162.72
2023-04-02T08:25:19.765Z,101166.75
2023-04-02T08:28:22.502Z,101169.09
2023-04-02T08:31:24.457Z,101163.78
2023-04-02T08:34:27.538Z,101174.19
2023-04-02T08:37:29.376Z,101175.28
2023-04-02T08:40:41.779Z,101182.28
2023-04-02T08:44:21.112Z,101186.88
2023-04-02T08:47:25.962Z,101201.97
2023-04-02T08:50:35.716Z,101195.00
2023-04-02T08:53:42.263Z,101207.47
2023-04-02T08:56:52.649Z,101211.84
2023-04-02T09:00:13.814Z,101216.19
2023-04-02T09:03:21.125Z,101227.50
2023-04-02T09:06:23.346Z,101223.84
2023-04-02T09:09:26.247Z,101235.41
2023-04-02T09:12:30.936Z,101241.25
2023-04-02T09:15:37.012Z,101244.44
2023-04-02T09:18:40.177Z,101252.13
2023-04-02T09:21:48.789Z,101262.31
2023-04-02T09:24:55.585Z,101269.97
2023-04-02T09:28:00.880Z,101266.22
2023-04-02T09:31:30.017Z,101276.34
2023-04-02T09:34:34.867Z,101269.94
2023-04-02T09:37:37.443Z,101274.13
2023-04-02T09:41:01.558Z,101281.84
2023-04-02T09:44:30.341Z,101278.09
2023-04-02T09:47:32.118Z,101291.56
2023-04-02T09:50:34.799Z,101307.59
2023-04-02T09:53:52.765Z,101309.47
2023-04-02T09:57:01.232Z,101315.59
2023-04-02T10:00:32.229Z,101324.06
2023-04-02T10:03:43.704Z,101322.13
2023-04-02T10:06:50.250Z,101335.47
2023-04-02T10:10:02.001Z,101337.53
2023-04-02T10:13:20.020Z,101340.84
2023-04-02T10:16:34.039Z,101348.19
2023-04-02T10:19:50.676Z,101347.53
2023-04-02T10:22:52.447Z,101354.69
2023-04-02T10:26:25.197Z,101359.03
2023-04-02T10:30:02.530Z,101359.19
2023-04-02T10:33:21.680Z,101368.41
2023-04-02T10:36:30.577Z,101362.00
2023-04-02T10:39:50.180Z,101370.38
2023-04-02T10:43:34.643Z,101369.16
2023-04-02T10:46:43.776Z,101379.50
2023-04-02T10:50:04.336Z,101377.84
2023-04-02T10:53:16.661Z,101384.00
2023-04-02T10:56:18.662Z,101382.81
2023-04-02T10:59:41.831Z,101388.28
2023-04-02T11:03:13.711Z,101399.13
2023-04-02T11:06:18.711Z,101408.06
2023-04-02T11:09:25.419Z,101396.47
2023-04-02T11:12:58.054Z,101407.78
2023-04-02T11:15:59.883Z,101413.00
2023-04-02T11:19:17.236Z,101410.63
2023-04-02T11:22:26.071Z,101414.16
2023-04-02T11:25:28.719Z,101417.16
2023-04-02T11:28:34.069Z,101419.50
2023-04-02T11:31:37.021Z,101423.22
2023-04-02T11:34:43.771Z,101423.41
2023-04-02T11:37:46.603Z,101420.72
2023-04-02T11:40:59.115Z,101423.03
2023-04-02T11:44:01.985Z,101432.56
2023-04-02T11:47:27.339Z,101441.50
2023-04-02T11:50:40.554Z,101433.25
2023-04-02T11:53:43.210Z,101444.66
2023-04-02T11:56:58.655Z,101449.72
2023-04-02T12:00:21.028Z,101454.53
2023-04-02T12:03:32.474Z,101449.34
2023-04-02T12:07:12.843Z,101453.09
2023-04-02T12:10:21.972Z,101454.03
2023-04-02T12:13:42.095Z,101459.09
2023-04-02T12:16:44.437Z,101453.31
2023-04-02T12:19:49.078Z,101460.94
2023-04-02T12:22:54.166Z,101461.91
2023-04-02T12:26:06.627Z,101459.78
2023-04-02T12:29:22.094Z,101469.19
2023-04-02T12:32:31.618Z,101460.94
2023-04-02T12:35:36.380Z,101459.94
2023-04-02T12:38:58.316Z,101461.69
2023-04-02T12:42:00.123Z,101454.94
2023-04-02T12:45:03.841Z,101446.81
2023-04-02T12:48:07.007Z,101455.13
2023-04-02T12:51:10.783Z,101457.28
2023-04-02T12:54:17.728Z,101458.97
2023-04-02T12:57:26.487Z,101462.69
2023-04-02T13:00:31.105Z,101456.69
2023-04-02T13:03:33.883Z,101466.22
2023-04-02T13:06:36.719Z,101459.19
2023-04-02T13:09:46.989Z,101461.22
2023-04-02T13:12:49.229Z,101453.75
2023-04-02T13:16:02.876Z,101459.84
2023-04-02T13:19:23.546Z,101458.09
2023-04-02T13:22:34.479Z,101467.41
2023-04-02T13:25:37.120Z,101463.88
2023-04-02T13:28:39.096Z,101462.28
2023-04-02T13:31:41.668Z,101471.41
2023-04-02T13:34:43.393Z,101480.13
2023-04-02T13:37:46.298Z,101470.13
2023-04-02T13:40:48.377Z,101486.63
2023-04-02T13:44:00.497Z,101478.66
2023-04-02T13:47:02.209Z,101481.72
2023-04-02T13:50:04.218Z,101489.25
2023-04-02T13:53:10.636Z,101486.56
2023-04-02T13:56:12.772Z,101490.13
2023-04-02T13:59:14.898Z,101485.78
2023-04-02T14:02:22.240Z,101479.59
2023-04-02T14:05:42.737Z,101478.03
2023-04-02T14:08:52.015Z,101493.50
2023-04-02T14:12:03.593Z,101496.00
2023-04-02T14:15:39.810Z,101485.31
2023-04-02T14:18:59.864Z,101488.00
2023-04-02T14:22:36.091Z,101493.09
2023-04-02T14:26:11.916Z,101502.91
2023-04-02T14:29:42.668Z,101496.31
2023-04-02T14:33:05.548Z,101497.34
2023-04-02T14:36:14.591Z,101498.25
2023-04-02T14:39:32.746Z,101506.97
2023-04-02T14:42:58.591Z,101506.75
2023-04-02T14:46:04.127Z,101513.16
2023-04-02T14:49:26.926Z,101510.28
2023-04-02T14:52:33.742Z,101532.25
2023-04-02T14:55:52.082Z,101532.56
2023-04-02T14:59:30.791Z,101531.53
2023-04-02T15:02:51.511Z,101537.59
2023-04-02T15:06:03.620Z,101529.09
2023-04-02T15:09:13.765Z,101521.28
2023-04-02T15:12:23.060Z,101536.63
2023-04-02T15:15:49.425Z,101529.63
2023-04-02T15:19:01.535Z,101537.59
2023-04-02T15:22:27.612Z,101533.34
2023-04-02T15:25:42.698Z,101537.41
2023-04-02T15:28:47.821Z,101536.63
2023-04-02T15:31:52.058Z,101550.47
2023-04-02T15:35:33.817Z,101551.50
2023-04-02T15:38:44.833Z,101546.94
2023-04-02T15:42:05.411Z,101557.78
2023-04-02T15:45:07.597Z,101557.38
2023-04-02T15:48:38.187Z,101560.47
2023-04-02T15:52:17.238Z,101560.00
2023-04-02T15:55:41.198Z,101559.91
2023-04-02T15:59:09.669Z,101559.34
2023-04-02T16:02:39.703Z,101568.44
2023-04-02T16:05:58.752Z,101572.00
2023-04-02T16:09:27.147Z,101570.53
2023-04-02T16:12:29.756Z,101584.47
2023-04-02T16:15:40.442Z,101581.97
2023-04-02T16:18:59.154Z,101586.59
2023-04-02T16:22:27.594Z,101592.06
2023-04-02T16:25:39.011Z,101592.69
2023-04-02T16:28:52.849Z,101599.84
2023-04-02T16:32:32.019Z,101605.00
2023-04-02T16:35:57.478Z,101611.81
2023-04-02T16:39:32.680Z,101618.78
2023-04-02T16:42:48.917Z,101633.88
2023-04-02T16:46:08.202Z,101632.78
2023-04-02T16:49:46.749Z,101631.59
2023-04-02T16:53:02.865Z,101639.06
2023-04-02T16:56:12.280Z,101645.72
2023-04-02T16:59:22.800Z,101645.72
2023-04-02T17:02:40.042Z,101658.19
2023-04-02T17:06:20.430Z,101657.84
2023-04-02T17:09:40.766Z,101659.88
2023-04-02T17:12:47.155Z,101671.03
2023-04-02T17:15:53.986Z,101676.94
2023-04-02T17:18:58.631Z,101681.50
2023-04-02T17:22:03.262Z,101680.81
2023-04-02T17:25:07.844Z,101684.88
2023-04-02T17:28:15.816Z,101681.88
2023-04-02T17:31:23.995Z,101686.16
2023-04-02T17:34:25.912Z,101693.38
2023-04-02T17:37:56.062Z,101695.84
2023-04-02T17:41:37.093Z,101702.00
2023-04-02T17:44:55.167Z,101714.44
2023-04-02T17:48:20.630Z,101709.09
2023-04-02T17:51:48.662Z,101719.63
2023-04-02T17:55:04.797Z,101724.91
2023-04-02T17:58:16.502Z,101729.84
2023-04-02T18:01:28.477Z,101731.34
2023-04-02T18:04:49.420Z,101728.81
2023-04-02T18:08:12.585Z,101741.97
2023-04-02T18:11:20.704Z,101747.72
2023-04-02T18:15:02.652Z,101741.91
2023-04-02T18:18:33.239Z,101753.88
2023-04-02T18:22:06.832Z,101755.53
2023-04-02T18:25:19.328Z,101762.75
2023-04-02T18:28:48.821Z,101767.81
2023-04-02T18:32:03.097Z,101774.13
2023-04-02T18:35:41.715Z,101784.31
2023-04-02T18:38:52.750Z,101790.91
2023-04-02T18:41:54.296Z,101788.81
2023-04-02T18:45:20.485Z,101796.06
2023-04-02T18:48:33.105Z,101808.16
2023-04-02T18:51:38.802Z,101813.38
2023-04-02T18:54:48.725Z,101822.19
2023-04-02T18:57:57.360Z,101824.91
2023-04-02T19:01:03.808Z,101830.34
2023-04-02T19:04:20.485Z,101834.94
2023-04-02T19:07:22.962Z,101850.94
2023-04-02T19:10:35.294Z,101856.97
2023-04-02T19:13:37.521Z,101857.47
2023-04-02T19:16:59.864Z,101862.75
2023-04-02T19:20:10.895Z,101868.25
2023-04-02T19:23:32.065Z,101875.97
2023-04-02T19:26:44.108Z,101877.03
2023-04-02T19:30:04.368Z,101879.66
2023-04-02T19:33:31.597Z,101885.00
2023-04-02T19:36:46.724Z,101893.91
2023-04-02T19:40:22.347Z,101897.41
2023-04-02T19:43:27.001Z,101902.53
2023-04-02T19:46:28.882Z,101903.69
2023-04-02T19:49:34.679Z,101906.16
2023-04-02T19:52:38.486Z,101908.56
2023-04-02T19:55:41.750Z,101908.56
2023-04-02T19:58:44.400Z,101920.81
2023-04-02T20:01:47.097Z,101923.00
2023-04-02T20:04:48.819Z,101922.41
2023-04-02T20:07:50.670Z,101928.53
2023-04-02T20:10:52.395Z,101932.03
2023-04-02T20:13:54.747Z,101937.34
2023-04-02T20:16:56.801Z,101936.66
2023-04-02T20:19:58.544Z,101937.66
2023-04-02T20:23:00.765Z,101939.41
2023-04-02T20:26:04.403Z,101949.72
2023-04-02T20:29:06.597Z,101953.09
2023-04-02T20:32:09.978Z,101954.75
2023-04-02T20:35:11.716Z,101966.72
2023-04-02T20:38:13.668Z,101968.25
2023-04-02T20:41:16.164Z,101970.13
2023-04-02T20:44:17.906Z,101977.25
2023-04-02T20:47:22.204Z,101976.31
2023-04-02T20:50:24.825Z,101978.78
2023-04-02T20:53:29.124Z,101978.09
2023-04-02T20:56:31.190Z,101981.44
2023-04-02T20:59:32.902Z,101987.50
2023-04-02T21:02:36.019Z,101990.31
2023-04-02T21:05:46.678Z,101992.88
2023-04-02T21:08:49.984Z,102003.28
2023-04-02T21:11:51.697Z,102003.22
2023-04-02T21:14:58.121Z,102006.94
2023-04-02T21:18:01.415Z,102011.38
2023-04-02T21:21:05.547Z,102025.94
2023-04-02T21:24:09.284Z,102024.38
2023-04-02T21:27:11.414Z,102021.00
2023-04-02T21:30:13.489Z,102030.19
2023-04-02T21:33:17.952Z,102029.69
2023-04-02T21:36:23.459Z,102041.84
2023-04-02T21:39:25.981Z,102042.78
2023-04-02T21:42:27.977Z,102044.28
2023-04-02T21:45:29.858Z,102040.97
2023-04-02T21:48:31.881Z,102046.00
2023-04-02T21:51:35.672Z,102049.53
2023-04-02T21:54:37.662Z,102059.09
2023-04-02T21:57:39.730Z,102053.16
2023-04-02T22:00:41.710Z,102068.66
2023-04-02T22:03:43.926Z,102062.81
2023-04-02T22:06:46.700Z,102063.81
2023-04-02T22:09:48.682Z,102061.34
2023-04-02T22:12:50.465Z,102071.72
2023-04-02T22:15:52.384Z,102075.22
2023-04-02T22:18:56.324Z,102071.78
2023-04-02T22:22:01.580Z,102077.72
2023-04-02T22:25:03.913Z,102083.81
2023-04-02T22:28:06.147Z,102083.81
2023-04-02T22:31:12.714Z,102081.31
2023-04-02T22:34:14.868Z,102087.31
2023-04-02T22:37:16.692Z,102086.50
2023-04-02T22:40:18.412Z,102090.78
2023-04-02T22:43:20.240Z,102095.13
2023-04-02T22:46:22.890Z,102093.50
2023-04-02T22:49:24.806Z,102096.91
2023-04-02T22:52:26.515Z,102103.78
2023-04-02T22:55:28.570Z,102103.72
2023-04-02T22:58:30.765Z,102108.13
2023-04-02T23:01:35.964Z,102109.06
2023-04-02T23:04:37.878Z,102106.63
2023-04-02T23:07:39.736Z,102116.06
2023-04-02T23:10:41.671Z,102113.59
2023-04-02T23:13:44.547Z,102114.47
2023-04-02T23:16:46.551Z,102112.88
2023-04-02T23:19:48.443Z,102117.16
2023-04-02T23:22:50.376Z,102118.84
2023-04-02T23:26:08.160Z,102110.38
2023-04-02T23:29:11.737Z,102120.53
2023-04-02T23:32:13.451Z,102115.53
2023-04-02T23:35:15.838Z,102124.91
2023-04-02T23:38:17.656Z,102121.59
2023-04-02T23:41:19.361Z,102126.72
2023-04-02T23:44:21.164Z,102126.00
2023-04-02T23:47:23.142Z,102130.09
2023-04-02T23:50:25.199Z,102140.41
2023-04-02T23:53:27.123Z,102135.41
2023-04-02T23:56:28.885Z,102137.19
2023-04-02T23:59:30.929Z,102140.59
